createdAt,value
2018-12-11T00:02:19.091Z,4.90
2018-12-11T00:04:48.231Z,4.90
2018-12-11T00:07:16.302Z,4.90
2018-12-11T00:09:44.568Z,4.90
2018-12-11T00:12:14.243Z,4.90
2018-12-11T00:14:42.926Z,4.90
2018-12-11T00:17:11.884Z,4.90
2018-12-11T00:19:39.988Z,4.80
2018-12-11T00:22:09.882Z,4.80
2018-12-11T00:24:38.069Z,4.80
2018-12-11T00:27:06.917Z,4.80
2018-12-11T00:29:36.085Z,4.90
2018-12-11T00:32:05.827Z,4.90
2018-12-11T00:34:34.071Z,4.90
2018-12-11T00:37:04.094Z,4.90
2018-12-11T00:39:32.363Z,4.90
2018-12-11T00:42:00.684Z,4.90
2018-12-11T00:44:29.562Z,4.90
2018-12-11T00:46:58.498Z,4.90
2018-12-11T00:49:27.532Z,4.90
2018-12-11T00:51:57.878Z,4.90
2018-12-11T00:54:25.976Z,4.80
2018-12-11T00:56:54.499Z,4.80
2018-12-11T00:59:23.497Z,4.90
2018-12-11T01:01:53.754Z,5.00
2018-12-11T01:04:21.999Z,5.00
2018-12-11T01:06:50.547Z,5.00
2018-12-11T01:09:19.645Z,4.80
2018-12-11T01:11:48.703Z,4.90
2018-12-11T01:14:17.067Z,4.90
2018-12-11T01:16:46.087Z,4.80
2018-12-11T01:19:15.276Z,4.80
2018-12-11T01:21:44.886Z,4.70
2018-12-11T01:24:13.540Z,4.70
2018-12-11T01:26:42.367Z,4.70
2018-12-11T01:29:11.447Z,4.60
2018-12-11T01:31:40.044Z,4.60
2018-12-11T01:34:08.187Z,4.60
2018-12-11T01:36:37.139Z,4.50
2018-12-11T01:39:08.827Z,4.50
2018-12-11T01:41:37.204Z,4.40
2018-12-11T01:44:06.171Z,4.40
2018-12-11T01:46:35.341Z,4.40
2018-12-11T01:49:04.485Z,4.30
2018-12-11T01:51:33.211Z,4.30
2018-12-11T01:54:03.819Z,4.20
2018-12-11T01:56:32.752Z,4.00
2018-12-11T01:59:01.759Z,4.20
2018-12-11T02:01:30.939Z,4.20
2018-12-11T02:03:59.152Z,4.20
2018-12-11T02:06:30.246Z,4.20
2018-12-11T02:08:59.347Z,4.10
2018-12-11T02:11:28.020Z,4.10
2018-12-11T02:13:56.610Z,4.00
2018-12-11T02:16:26.536Z,4.00
2018-12-11T02:18:55.359Z,4.00
2018-12-11T02:21:25.591Z,3.80
2018-12-11T02:23:54.888Z,3.70
2018-12-11T02:26:25.244Z,3.70
2018-12-11T02:28:54.915Z,3.90
2018-12-11T02:31:23.557Z,3.80
2018-12-11T02:33:52.045Z,3.80
2018-12-11T02:36:22.014Z,3.70
2018-12-11T02:38:51.179Z,3.70
2018-12-11T02:41:20.580Z,3.70
2018-12-11T02:43:52.142Z,3.60
2018-12-11T02:46:21.291Z,3.60
2018-12-11T02:48:50.075Z,3.60
2018-12-11T02:51:18.146Z,3.60
2018-12-11T02:53:47.955Z,3.60
2018-12-11T02:56:16.163Z,3.50
2018-12-11T02:58:44.933Z,3.50
2018-12-11T03:01:13.669Z,3.40
2018-12-11T03:03:42.521Z,3.30
2018-12-11T03:06:11.675Z,3.30
2018-12-11T03:08:40.330Z,3.40
2018-12-11T03:11:08.543Z,3.40
2018-12-11T03:13:36.663Z,3.50
2018-12-11T03:16:04.846Z,3.50
2018-12-11T03:18:34.583Z,3.40
2018-12-11T03:21:04.706Z,3.40
2018-12-11T03:23:34.659Z,3.30
2018-12-11T03:26:03.424Z,3.30
2018-12-11T03:28:32.499Z,3.40
2018-12-11T03:31:00.848Z,3.40
2018-12-11T03:33:29.435Z,3.30
2018-12-11T03:35:57.972Z,3.30
2018-12-11T03:38:28.260Z,3.30
2018-12-11T03:40:56.983Z,3.30
2018-12-11T03:43:26.235Z,3.30
2018-12-11T03:45:55.433Z,3.30
2018-12-11T03:48:25.480Z,3.30
2018-12-11T03:50:54.035Z,3.30
2018-12-11T03:53:23.189Z,3.30
2018-12-11T03:55:52.021Z,3.30
2018-12-11T03:58:21.208Z,3.30
2018-12-11T04:00:50.232Z,3.20
2018-12-11T04:03:19.289Z,3.10
2018-12-11T04:05:49.467Z,3.00
2018-12-11T04:08:19.466Z,3.00
2018-12-11T04:10:49.814Z,3.10
2018-12-11T04:13:18.605Z,3.10
2018-12-11T04:15:46.767Z,3.10
2018-12-11T04:18:16.664Z,3.10
2018-12-11T04:20:44.987Z,3.10
2018-12-11T04:23:13.191Z,3.20
2018-12-11T04:25:41.692Z,3.10
2018-12-11T04:28:10.619Z,3.00
2018-12-11T04:30:38.855Z,3.00
2018-12-11T04:33:09.836Z,3.00
2018-12-11T04:35:39.312Z,3.00
2018-12-11T04:38:07.726Z,3.10
2018-12-11T04:40:37.056Z,3.00
2018-12-11T04:43:07.278Z,3.00
2018-12-11T04:45:35.767Z,3.00
2018-12-11T04:48:05.847Z,3.00
2018-12-11T04:50:35.245Z,2.90
2018-12-11T04:53:03.702Z,2.80
2018-12-11T04:55:32.011Z,2.70
2018-12-11T04:58:00.170Z,2.70
2018-12-11T05:00:30.363Z,2.70
2018-12-11T05:02:59.771Z,2.80
2018-12-11T05:05:28.407Z,2.70
2018-12-11T05:07:57.236Z,2.80
2018-12-11T05:10:27.219Z,2.80
2018-12-11T05:12:55.606Z,2.70
2018-12-11T05:15:23.811Z,2.70
2018-12-11T05:17:53.508Z,2.90
2018-12-11T05:20:22.715Z,2.90
2018-12-11T05:22:50.895Z,3.00
2018-12-11T05:25:19.137Z,2.80
2018-12-11T05:27:47.871Z,2.80
2018-12-11T05:30:17.224Z,2.70
2018-12-11T05:32:45.490Z,2.70
2018-12-11T05:35:14.243Z,2.60
2018-12-11T05:37:42.353Z,2.60
2018-12-11T05:40:11.276Z,2.50
2018-12-11T05:42:40.742Z,2.50
2018-12-11T05:45:11.623Z,2.60
2018-12-11T05:47:39.767Z,2.60
2018-12-11T05:50:08.649Z,2.50
2018-12-11T05:52:38.115Z,2.50
2018-12-11T05:55:06.923Z,2.40
2018-12-11T05:57:35.851Z,2.40
2018-12-11T06:00:07.075Z,2.50
2018-12-11T06:02:35.420Z,2.50
2018-12-11T06:05:05.729Z,2.60
2018-12-11T06:07:33.812Z,2.60
2018-12-11T06:10:02.403Z,2.60
2018-12-11T06:12:31.488Z,2.50
2018-12-11T06:14:59.712Z,2.50
2018-12-11T06:17:28.747Z,2.70
2018-12-11T06:20:02.276Z,2.60
2018-12-11T06:22:36.407Z,2.60
2018-12-11T06:25:05.396Z,2.60
2018-12-11T06:27:34.455Z,2.50
2018-12-11T06:30:02.663Z,2.50
2018-12-11T06:32:31.916Z,2.50
2018-12-11T06:35:00.596Z,2.60
2018-12-11T06:37:29.558Z,2.60
2018-12-11T06:39:58.064Z,2.70
2018-12-11T06:42:27.096Z,2.50
2018-12-11T06:44:56.147Z,2.50
2018-12-11T06:47:24.314Z,2.60
2018-12-11T06:49:53.117Z,2.60
2018-12-11T06:52:22.116Z,2.50
2018-12-11T06:54:50.299Z,2.50
2018-12-11T06:57:19.056Z,2.40
2018-12-11T06:59:48.071Z,2.40
2018-12-11T07:02:17.060Z,2.50
2018-12-11T07:04:45.223Z,2.70
2018-12-11T07:07:14.055Z,2.60
2018-12-11T07:09:43.015Z,2.60
2018-12-11T07:12:13.077Z,2.60
2018-12-11T07:14:41.331Z,2.70
2018-12-11T07:17:09.625Z,2.70
2018-12-11T07:19:38.055Z,2.60
2018-12-11T07:22:07.052Z,2.60
2018-12-11T07:24:35.924Z,2.50
2018-12-11T07:27:05.799Z,2.50
2018-12-11T07:29:35.146Z,2.40
2018-12-11T07:32:04.630Z,2.30
2018-12-11T07:34:32.876Z,2.30
2018-12-11T07:37:01.096Z,2.50
2018-12-11T07:39:29.324Z,2.50
2018-12-11T07:41:58.504Z,2.50
2018-12-11T07:44:27.241Z,2.30
2018-12-11T07:46:55.552Z,2.30
2018-12-11T07:49:23.823Z,2.40
2018-12-11T07:51:52.923Z,2.40
2018-12-11T07:54:22.019Z,2.30
2018-12-11T07:56:50.349Z,2.30
2018-12-11T07:59:18.955Z,2.30
2018-12-11T08:01:47.883Z,2.30
2018-12-11T08:04:16.207Z,2.30
2018-12-11T08:06:44.419Z,2.20
2018-12-11T08:09:13.291Z,2.30
2018-12-11T08:11:41.861Z,2.20
2018-12-11T08:14:10.944Z,2.10
2018-12-11T08:16:41.111Z,2.10
2018-12-11T08:19:09.727Z,2.10
2018-12-11T08:21:38.703Z,2.20
2018-12-11T08:24:08.019Z,2.20
2018-12-11T08:26:38.181Z,2.20
2018-12-11T08:29:06.431Z,2.30
2018-12-11T08:31:35.127Z,2.20
2018-12-11T08:34:05.131Z,2.30
2018-12-11T08:36:33.551Z,2.40
2018-12-11T08:39:01.943Z,2.40
2018-12-11T08:41:30.119Z,2.40
2018-12-11T08:44:00.092Z,2.50
2018-12-11T08:46:29.138Z,2.50
2018-12-11T08:48:58.435Z,2.50
2018-12-11T08:51:27.571Z,2.60
2018-12-11T08:53:56.129Z,2.60
2018-12-11T08:56:25.894Z,2.70
2018-12-11T08:58:58.842Z,2.70
2018-12-11T09:01:27.428Z,2.70
2018-12-11T09:03:56.104Z,2.80
2018-12-11T09:06:24.423Z,2.90
2018-12-11T09:08:52.604Z,3.10
2018-12-11T09:11:22.727Z,3.40
2018-12-11T09:13:50.876Z,3.50
2018-12-11T09:16:19.914Z,3.60
2018-12-11T09:18:49.088Z,3.70
2018-12-11T09:21:17.295Z,3.70
2018-12-11T09:23:46.111Z,3.60
2018-12-11T09:26:14.279Z,3.40
2018-12-11T09:28:42.952Z,3.20
2018-12-11T09:31:12.720Z,3.70
2018-12-11T09:33:42.320Z,7.40
2018-12-11T09:36:11.939Z,10.40
2018-12-11T09:38:40.259Z,10.90
2018-12-11T09:41:08.615Z,7.60
2018-12-11T09:43:36.996Z,5.70
2018-12-11T09:46:06.883Z,4.80
2018-12-11T09:48:36.847Z,4.60
2018-12-11T09:51:05.218Z,4.40
2018-12-11T09:53:33.437Z,4.30
2018-12-11T09:56:02.499Z,4.40
2018-12-11T09:58:30.652Z,4.40
2018-12-11T10:00:59.730Z,4.40
2018-12-11T10:03:28.188Z,4.50
2018-12-11T10:05:56.988Z,4.60
2018-12-11T10:08:26.876Z,4.60
2018-12-11T10:10:56.862Z,4.80
2018-12-11T10:13:26.631Z,5.00
2018-12-11T10:15:55.983Z,5.10
2018-12-11T10:18:25.227Z,5.20
2018-12-11T10:20:54.374Z,5.10
2018-12-11T10:23:24.471Z,5.00
2018-12-11T10:25:53.836Z,4.90
2018-12-11T10:28:22.627Z,4.90
2018-12-11T10:30:51.463Z,4.90
2018-12-11T10:33:21.591Z,5.00
2018-12-11T10:35:50.488Z,5.00
2018-12-11T10:38:18.807Z,5.00
2018-12-11T10:40:47.443Z,5.00
2018-12-11T10:43:16.378Z,6.00
2018-12-11T10:45:44.695Z,8.30
2018-12-11T10:48:14.031Z,11.50
2018-12-11T10:50:42.299Z,13.10
2018-12-11T10:53:11.652Z,12.90
2018-12-11T10:55:39.805Z,12.60
2018-12-11T10:58:09.864Z,9.30
2018-12-11T11:00:43.759Z,7.00
2018-12-11T11:03:12.504Z,5.80
2018-12-11T11:05:41.313Z,5.70
2018-12-11T11:08:10.583Z,5.70
2018-12-11T11:10:39.542Z,5.50
2018-12-11T11:13:07.935Z,5.40
2018-12-11T11:15:39.172Z,5.40
2018-12-11T11:18:07.971Z,5.30
2018-12-11T11:20:36.443Z,5.40
2018-12-11T11:23:05.864Z,5.40
2018-12-11T11:25:34.429Z,5.30
2018-12-11T11:28:04.427Z,5.20
2018-12-11T11:30:32.600Z,5.20
2018-12-11T11:33:01.462Z,5.20
2018-12-11T11:35:30.386Z,5.20
2018-12-11T11:37:58.575Z,5.20
2018-12-11T11:40:27.569Z,5.30
2018-12-11T11:42:55.709Z,5.30
2018-12-11T11:45:27.027Z,5.30
2018-12-11T11:47:56.244Z,5.30
2018-12-11T11:50:25.244Z,5.10
2018-12-11T11:52:54.255Z,5.10
2018-12-11T11:55:22.598Z,5.10
2018-12-11T11:57:50.951Z,5.10
2018-12-11T12:00:19.720Z,5.20
2018-12-11T12:02:47.896Z,5.10
2018-12-11T12:05:16.551Z,5.20
2018-12-11T12:07:45.424Z,5.10
2018-12-11T12:10:14.207Z,5.10
2018-12-11T12:12:43.330Z,5.10
2018-12-11T12:15:11.627Z,5.10
2018-12-11T12:17:40.988Z,5.20
2018-12-11T12:20:11.748Z,5.10
2018-12-11T12:22:40.628Z,5.10
2018-12-11T12:25:08.846Z,5.20
2018-12-11T12:27:37.776Z,5.20
2018-12-11T12:30:07.745Z,5.10
2018-12-11T12:32:36.820Z,5.20
2018-12-11T12:35:07.139Z,5.20
2018-12-11T12:37:35.500Z,5.20
2018-12-11T12:40:05.601Z,5.20
2018-12-11T12:42:33.840Z,5.20
2018-12-11T12:45:03.051Z,5.20
2018-12-11T12:47:31.413Z,5.20
2018-12-11T12:50:00.463Z,5.20
2018-12-11T12:52:28.957Z,5.20
2018-12-11T12:54:57.111Z,5.20
2018-12-11T12:57:25.775Z,5.10
2018-12-11T12:59:53.960Z,5.20
2018-12-11T13:02:23.267Z,5.10
2018-12-11T13:04:51.871Z,5.10
2018-12-11T13:07:21.802Z,5.10
2018-12-11T13:09:49.947Z,5.10
2018-12-11T13:12:18.139Z,5.10
2018-12-11T13:15:50.163Z,5.10
2018-12-11T13:18:19.670Z,5.40
2018-12-11T13:20:48.355Z,5.00
2018-12-11T13:23:17.579Z,5.00
2018-12-11T13:25:46.597Z,5.00
2018-12-11T13:28:16.769Z,5.00
2018-12-11T13:30:45.492Z,5.00
2018-12-11T13:33:14.114Z,5.00
2018-12-11T13:35:42.531Z,5.00
2018-12-11T13:38:12.532Z,4.90
2018-12-11T13:40:42.091Z,4.90
2018-12-11T13:43:11.948Z,5.00
2018-12-11T13:45:40.987Z,4.90
2018-12-11T13:48:11.360Z,4.90
2018-12-11T13:50:40.190Z,4.90
2018-12-11T13:53:09.073Z,5.00
2018-12-11T13:55:39.195Z,4.90
2018-12-11T13:58:08.259Z,4.90
2018-12-11T14:00:36.452Z,4.90
2018-12-11T14:03:04.951Z,4.90
2018-12-11T14:05:33.041Z,4.90
2018-12-11T14:08:02.462Z,4.90
2018-12-11T14:10:31.083Z,4.90
2018-12-11T14:12:59.320Z,4.90
2018-12-11T14:15:29.608Z,4.80
2018-12-11T14:17:59.276Z,4.90
2018-12-11T14:20:28.456Z,4.80
2018-12-11T14:22:57.727Z,4.80
2018-12-11T14:25:26.227Z,4.90
2018-12-11T14:27:56.104Z,4.80
2018-12-11T14:30:24.446Z,4.80
2018-12-11T14:32:53.415Z,4.80
2018-12-11T14:35:22.115Z,4.80
2018-12-11T14:37:50.220Z,4.80
2018-12-11T14:40:19.479Z,4.80
2018-12-11T14:42:47.671Z,4.70
2018-12-11T14:45:17.419Z,4.70
2018-12-11T14:47:45.527Z,4.80
2018-12-11T14:50:16.171Z,4.80
2018-12-11T14:52:45.244Z,4.80
2018-12-11T14:55:14.826Z,4.80
2018-12-11T14:57:42.955Z,4.80
2018-12-11T15:00:12.604Z,4.80
2018-12-11T15:02:41.809Z,4.80
2018-12-11T15:05:10.694Z,4.80
2018-12-11T15:08:42.795Z,4.80
2018-12-11T15:11:10.975Z,4.80
2018-12-11T15:13:40.833Z,4.80
2018-12-11T15:16:09.299Z,4.80
2018-12-11T15:18:37.851Z,4.80
2018-12-11T15:21:06.715Z,4.80
2018-12-11T15:23:36.239Z,4.80
2018-12-11T15:26:05.548Z,4.80
2018-12-11T15:28:34.224Z,4.80
2018-12-11T15:31:09.519Z,4.80
2018-12-11T15:33:38.435Z,4.80
2018-12-11T15:36:06.955Z,4.80
2018-12-11T15:38:35.475Z,4.80
2018-12-11T15:41:04.290Z,4.80
2018-12-11T15:43:33.683Z,4.80
2018-12-11T15:46:02.068Z,4.80
2018-12-11T15:48:30.410Z,4.80
2018-12-11T15:50:58.615Z,4.80
2018-12-11T15:53:26.952Z,4.70
2018-12-11T15:55:55.167Z,4.70
2018-12-11T15:58:25.113Z,4.70
2018-12-11T16:00:56.106Z,4.60
2018-12-11T16:03:26.168Z,4.60
2018-12-11T16:05:54.455Z,4.60
2018-12-11T16:08:22.908Z,4.60
2018-12-11T16:10:51.958Z,4.60
2018-12-11T16:13:20.422Z,4.60
2018-12-11T16:15:49.157Z,4.60
2018-12-11T16:18:17.399Z,4.60
2018-12-11T16:20:46.579Z,4.60
2018-12-11T16:23:14.796Z,4.60
2018-12-11T16:25:43.939Z,4.50
2018-12-11T16:28:13.343Z,4.50
2018-12-11T16:30:41.985Z,4.60
2018-12-11T16:33:12.387Z,4.60
2018-12-11T16:35:41.945Z,4.60
2018-12-11T16:38:12.170Z,4.70
2018-12-11T16:40:40.375Z,4.60
2018-12-11T16:43:09.507Z,4.60
2018-12-11T16:45:39.305Z,4.60
2018-12-11T16:48:08.298Z,4.70
2018-12-11T16:50:36.714Z,4.70
2018-12-11T16:53:05.218Z,4.60
2018-12-11T16:55:34.059Z,4.60
2018-12-11T16:58:03.296Z,4.70
2018-12-11T17:00:31.700Z,4.60
2018-12-11T17:03:01.206Z,4.60
2018-12-11T17:05:30.443Z,4.70
2018-12-11T17:08:00.335Z,4.60
2018-12-11T17:10:28.575Z,4.70
2018-12-11T17:12:57.187Z,4.70
2018-12-11T17:15:27.307Z,4.60
2018-12-11T17:17:56.651Z,4.60
2018-12-11T17:20:24.980Z,4.60
2018-12-11T17:22:53.132Z,4.60
2018-12-11T17:25:23.188Z,4.60
2018-12-11T17:27:53.202Z,4.70
2018-12-11T17:30:21.879Z,4.60
2018-12-11T17:32:50.016Z,4.70
2018-12-11T17:35:19.988Z,4.70
2018-12-11T17:37:49.362Z,4.70
2018-12-11T17:40:18.970Z,4.70
2018-12-11T17:42:47.111Z,4.70
2018-12-11T17:45:15.922Z,4.60
2018-12-11T17:47:44.303Z,4.60
2018-12-11T17:50:12.633Z,4.60
2018-12-11T17:52:42.039Z,4.60
2018-12-11T17:55:11.195Z,4.60
2018-12-11T17:57:39.359Z,4.60
2018-12-11T18:00:09.503Z,4.60
2018-12-11T18:02:39.227Z,4.50
2018-12-11T18:05:07.780Z,4.40
2018-12-11T18:07:36.830Z,4.40
2018-12-11T18:10:06.915Z,4.30
2018-12-11T18:12:34.991Z,4.40
2018-12-11T18:15:04.223Z,4.30
2018-12-11T18:17:34.357Z,4.40
2018-12-11T18:20:03.080Z,4.40
2018-12-11T18:22:31.915Z,4.40
2018-12-11T18:25:00.245Z,4.40
2018-12-11T18:28:32.703Z,4.40
2018-12-11T18:31:01.688Z,4.40
2018-12-11T18:33:29.839Z,4.50
2018-12-11T18:35:58.579Z,4.50
2018-12-11T18:38:26.723Z,4.30
2018-12-11T18:40:56.410Z,4.30
2018-12-11T18:43:25.558Z,4.20
2018-12-11T18:45:54.471Z,4.10
2018-12-11T18:48:22.675Z,4.10
2018-12-11T18:50:52.707Z,4.00
2018-12-11T18:53:21.689Z,3.90
2018-12-11T18:55:50.707Z,3.90
2018-12-11T18:58:20.262Z,3.90
2018-12-11T19:00:48.520Z,3.90
2018-12-11T19:03:17.651Z,4.00
2018-12-11T19:05:46.644Z,4.00
2018-12-11T19:08:14.947Z,4.00
2018-12-11T19:10:43.155Z,4.00
2018-12-11T19:13:11.243Z,4.00
2018-12-11T19:15:39.372Z,4.00
2018-12-11T19:18:08.323Z,3.90
2018-12-11T19:20:37.851Z,3.90
2018-12-11T19:23:17.915Z,3.90
2018-12-11T19:25:46.046Z,3.80
2018-12-11T19:28:14.282Z,3.80
2018-12-11T19:30:43.764Z,3.80
2018-12-11T19:33:12.027Z,3.90
2018-12-11T19:35:41.868Z,3.90
2018-12-11T19:38:10.624Z,3.90
2018-12-11T19:40:40.971Z,4.00
2018-12-11T19:43:08.859Z,4.00
2018-12-11T19:45:37.311Z,4.00
2018-12-11T19:48:06.914Z,4.00
2018-12-11T19:50:35.139Z,4.10
2018-12-11T19:53:05.148Z,4.10
2018-12-11T19:55:34.075Z,4.10
2018-12-11T19:58:03.400Z,4.00
2018-12-11T20:00:32.396Z,4.00
2018-12-11T20:03:01.706Z,3.90
2018-12-11T20:05:30.692Z,3.90
2018-12-11T20:08:00.239Z,4.00
2018-12-11T20:10:29.055Z,3.90
2018-12-11T20:12:59.006Z,3.80
2018-12-11T20:15:27.567Z,3.80
2018-12-11T20:17:56.079Z,3.60
2018-12-11T20:20:29.125Z,3.60
2018-12-11T20:22:59.481Z,3.50
2018-12-11T20:25:27.687Z,3.50
2018-12-11T20:27:57.233Z,3.60
2018-12-11T20:30:26.651Z,3.50
2018-12-11T20:32:55.635Z,3.60
2018-12-11T20:35:24.112Z,3.70
2018-12-11T20:37:52.367Z,3.70
2018-12-11T20:40:21.579Z,3.70
2018-12-11T20:42:51.099Z,3.70
2018-12-11T20:45:19.311Z,3.70
2018-12-11T20:47:47.447Z,3.70
2018-12-11T20:50:16.511Z,3.70
2018-12-11T20:52:46.283Z,3.80
2018-12-11T20:55:15.671Z,3.80
2018-12-11T20:57:44.756Z,3.70
2018-12-11T21:00:14.552Z,3.70
2018-12-11T21:02:45.408Z,3.70
2018-12-11T21:05:13.547Z,3.70
2018-12-11T21:07:42.147Z,3.70
2018-12-11T21:10:14.007Z,3.60
2018-12-11T21:12:43.743Z,3.40
2018-12-11T21:15:11.952Z,3.30
2018-12-11T21:17:40.905Z,3.20
2018-12-11T21:20:09.960Z,3.20
2018-12-11T21:22:38.071Z,3.20
2018-12-11T21:25:06.392Z,3.20
2018-12-11T21:28:38.024Z,3.20
2018-12-11T21:31:07.058Z,3.10
2018-12-11T21:33:35.591Z,3.10
2018-12-11T21:36:04.786Z,3.10
2018-12-11T21:38:33.375Z,3.10
2018-12-11T21:41:01.727Z,3.00
2018-12-11T21:43:30.504Z,3.10
2018-12-11T21:45:58.781Z,3.10
2018-12-11T21:48:28.411Z,3.20
2018-12-11T21:50:56.879Z,3.20
2018-12-11T21:53:25.793Z,3.30
2018-12-11T21:55:54.000Z,3.30
2018-12-11T21:58:23.372Z,3.30
2018-12-11T22:00:51.842Z,3.40
2018-12-11T22:03:20.984Z,3.40
2018-12-11T22:05:50.123Z,3.40
2018-12-11T22:08:18.296Z,3.40
2018-12-11T22:10:47.015Z,3.40
2018-12-11T22:13:16.026Z,3.40
2018-12-11T22:15:44.552Z,3.40
2018-12-11T22:18:12.926Z,3.30
2018-12-11T22:20:41.207Z,3.40
2018-12-11T22:23:09.411Z,3.30
2018-12-11T22:25:38.711Z,3.30
2018-12-11T22:28:07.191Z,3.30
2018-12-11T22:30:35.571Z,3.20
2018-12-11T22:33:04.582Z,3.10
2018-12-11T22:35:32.838Z,3.00
2018-12-11T22:38:01.931Z,2.90
2018-12-11T22:40:30.063Z,2.90
2018-12-11T22:42:59.099Z,2.90
2018-12-11T22:45:27.449Z,3.00
2018-12-11T22:47:56.199Z,3.00
2018-12-11T22:50:24.313Z,3.10
2018-12-11T22:52:52.603Z,3.10
2018-12-11T22:55:21.536Z,3.10
2018-12-11T22:57:49.968Z,3.10
2018-12-11T23:00:18.888Z,3.20
2018-12-11T23:02:48.916Z,3.20
2018-12-11T23:05:19.195Z,3.20
2018-12-11T23:07:47.251Z,3.30
2018-12-11T23:10:15.671Z,3.30
2018-12-11T23:12:44.642Z,3.40
2018-12-11T23:15:13.310Z,3.30
2018-12-11T23:17:42.240Z,3.40
2018-12-11T23:20:11.232Z,3.40
2018-12-11T23:22:40.859Z,3.40
2018-12-11T23:25:10.322Z,3.40
2018-12-11T23:28:42.227Z,3.40
2018-12-11T23:31:11.263Z,3.40
2018-12-11T23:33:39.992Z,3.40
2018-12-11T23:36:08.079Z,3.40
2018-12-11T23:38:36.191Z,3.40
2018-12-11T23:41:05.063Z,3.40
2018-12-11T23:43:33.463Z,3.40
2018-12-11T23:46:01.639Z,3.40
2018-12-11T23:48:29.788Z,3.40
2018-12-11T23:50:58.630Z,3.40
2018-12-11T23:53:26.783Z,3.40
2018-12-11T23:55:56.054Z,3.40
2018-12-11T23:58:26.404Z,3.40
